sensor_id;sensor_type;location;lat;lon;timestamp;temperature;humidity
12655;DHT22;6392;44.644;11.448;2022-09-29T00:00:58;15.70;99.90
12655;DHT22;6392;44.644;11.448;2022-09-29T00:03:27;15.70;99.90
12655;DHT22;6392;44.644;11.448;2022-09-29T00:05:54;15.70;99.90
12655;DHT22;6392;44.644;11.448;2022-09-29T00:08:25;15.60;99.90
12655;DHT22;6392;44.644;11.448;2022-09-29T00:10:52;15.60;99.90
12655;DHT22;6392;44.644;11.448;2022-09-29T00:13:19;15.40;99.90
12655;DHT22;6392;44.644;11.448;2022-09-29T00:15:54;15.30;99.90
12655;DHT22;6392;44.644;11.448;2022-09-29T00:18:21;15.20;99.90
12655;DHT22;6392;44.644;11.448;2022-09-29T00:20:55;15.10;99.90
12655;DHT22;6392;44.644;11.448;2022-09-29T00:23:24;15.10;99.90
12655;DHT22;6392;44.644;11.448;2022-09-29T00:25:59;15.00;99.90
12655;DHT22;6392;44.644;11.448;2022-09-29T00:28:27;15.10;99.90
12655;DHT22;6392;44.644;11.448;2022-09-29T00:30:54;15.10;99.90
12655;DHT22;6392;44.644;11.448;2022-09-29T00:33:20;15.20;99.90
12655;DHT22;6392;44.644;11.448;2022-09-29T00:35:55;15.20;99.90
12655;DHT22;6392;44.644;11.448;2022-09-29T00:38:25;15.20;99.90
12655;DHT22;6392;44.644;11.448;2022-09-29T00:40:52;15.20;99.90
12655;DHT22;6392;44.644;11.448;2022-09-29T00:43:21;15.20;99.90
12655;DHT22;6392;44.644;11.448;2022-09-29T00:45:49;15.20;99.90
12655;DHT22;6392;44.644;11.448;2022-09-29T00:48:19;15.10;99.90
12655;DHT22;6392;44.644;11.448;2022-09-29T00:50:51;15.20;99.90
12655;DHT22;6392;44.644;11.448;2022-09-29T00:53:20;15.20;99.90
12655;DHT22;6392;44.644;11.448;2022-09-29T00:55:51;15.20;99.90
12655;DHT22;6392;44.644;11.448;2022-09-29T00:58:25;15.20;99.90
12655;DHT22;6392;44.644;11.448;2022-09-29T01:00:54;15.10;99.90
12655;DHT22;6392;44.644;11.448;2022-09-29T01:03:22;15.20;99.90
12655;DHT22;6392;44.644;11.448;2022-09-29T01:05:53;15.20;99.90
12655;DHT22;6392;44.644;11.448;2022-09-29T01:08:24;15.20;99.90
12655;DHT22;6392;44.644;11.448;2022-09-29T01:10:56;15.20;99.90
12655;DHT22;6392;44.644;11.448;2022-09-29T01:13:24;15.20;99.90
12655;DHT22;6392;44.644;11.448;2022-09-29T01:15:51;15.20;99.90
12655;DHT22;6392;44.644;11.448;2022-09-29T01:18:18;15.20;99.90
12655;DHT22;6392;44.644;11.448;2022-09-29T01:20:55;15.30;99.90
12655;DHT22;6392;44.644;11.448;2022-09-29T01:23:50;15.20;99.90
12655;DHT22;6392;44.644;11.448;2022-09-29T01:26:46;15.00;99.90
12655;DHT22;6392;44.644;11.448;2022-09-29T01:29:35;14.90;99.90
12655;DHT22;6392;44.644;11.448;2022-09-29T01:32:10;14.90;99.90
12655;DHT22;6392;44.644;11.448;2022-09-29T01:34:49;14.90;99.90
12655;DHT22;6392;44.644;11.448;2022-09-29T01:37:24;15.00;99.90
12655;DHT22;6392;44.644;11.448;2022-09-29T01:39:58;15.10;99.90
12655;DHT22;6392;44.644;11.448;2022-09-29T01:42:31;15.10;99.90
12655;DHT22;6392;44.644;11.448;2022-09-29T01:45:08;15.10;99.90
12655;DHT22;6392;44.644;11.448;2022-09-29T01:47:41;15.10;99.90
12655;DHT22;6392;44.644;11.448;2022-09-29T01:50:12;15.10;99.90
12655;DHT22;6392;44.644;11.448;2022-09-29T01:52:43;15.00;99.90
12655;DHT22;6392;44.644;11.448;2022-09-29T01:55:15;14.80;99.90
12655;DHT22;6392;44.644;11.448;2022-09-29T01:57:46;14.70;99.90
12655;DHT22;6392;44.644;11.448;2022-09-29T02:00:17;14.60;99.90
12655;DHT22;6392;44.644;11.448;2022-09-29T02:02:49;14.60;99.90
12655;DHT22;6392;44.644;11.448;2022-09-29T02:05:20;14.60;99.90
12655;DHT22;6392;44.644;11.448;2022-09-29T02:07:49;14.60;99.90
12655;DHT22;6392;44.644;11.448;2022-09-29T02:10:21;14.60;99.90
12655;DHT22;6392;44.644;11.448;2022-09-29T02:12:51;14.60;99.90
12655;DHT22;6392;44.644;11.448;2022-09-29T02:15:24;14.60;99.90
12655;DHT22;6392;44.644;11.448;2022-09-29T02:17:54;14.60;99.90
12655;DHT22;6392;44.644;11.448;2022-09-29T02:20:23;14.70;99.90
12655;DHT22;6392;44.644;11.448;2022-09-29T02:22:50;14.70;99.90
12655;DHT22;6392;44.644;11.448;2022-09-29T02:25:18;14.70;99.90
12655;DHT22;6392;44.644;11.448;2022-09-29T02:27:46;14.70;99.90
12655;DHT22;6392;44.644;11.448;2022-09-29T02:30:15;14.70;99.90
12655;DHT22;6392;44.644;11.448;2022-09-29T02:32:42;14.70;99.90
12655;DHT22;6392;44.644;11.448;2022-09-29T02:35:12;14.70;99.90
12655;DHT22;6392;44.644;11.448;2022-09-29T02:37:48;14.70;99.90
12655;DHT22;6392;44.644;11.448;2022-09-29T02:40:29;14.70;99.90
12655;DHT22;6392;44.644;11.448;2022-09-29T02:43:14;14.70;99.90
12655;DHT22;6392;44.644;11.448;2022-09-29T02:45:58;14.80;99.90
12655;DHT22;6392;44.644;11.448;2022-09-29T02:48:46;14.80;99.90
12655;DHT22;6392;44.644;11.448;2022-09-29T02:51:20;14.70;99.90
12655;DHT22;6392;44.644;11.448;2022-09-29T02:54:05;14.70;99.90
12655;DHT22;6392;44.644;11.448;2022-09-29T02:56:39;14.60;99.90
12655;DHT22;6392;44.644;11.448;2022-09-29T02:59:13;14.40;99.90
12655;DHT22;6392;44.644;11.448;2022-09-29T03:01:48;14.40;99.90
12655;DHT22;6392;44.644;11.448;2022-09-29T03:04:15;14.30;99.90
12655;DHT22;6392;44.644;11.448;2022-09-29T03:06:44;14.30;99.90
12655;DHT22;6392;44.644;11.448;2022-09-29T03:09:11;14.30;99.90
12655;DHT22;6392;44.644;11.448;2022-09-29T03:11:38;14.30;99.90
12655;DHT22;6392;44.644;11.448;2022-09-29T03:14:05;14.30;99.90
12655;DHT22;6392;44.644;11.448;2022-09-29T03:16:33;14.20;99.90
12655;DHT22;6392;44.644;11.448;2022-09-29T03:19:01;14.20;99.90
12655;DHT22;6392;44.644;11.448;2022-09-29T03:21:28;14.20;99.90
12655;DHT22;6392;44.644;11.448;2022-09-29T03:23:57;14.10;99.90
12655;DHT22;6392;44.644;11.448;2022-09-29T03:26:24;14.10;99.90
12655;DHT22;6392;44.644;11.448;2022-09-29T03:28:51;14.10;99.90
12655;DHT22;6392;44.644;11.448;2022-09-29T03:31:19;14.20;99.90
12655;DHT22;6392;44.644;11.448;2022-09-29T03:33:46;14.10;99.90
12655;DHT22;6392;44.644;11.448;2022-09-29T03:36:13;14.10;99.90
12655;DHT22;6392;44.644;11.448;2022-09-29T03:38:40;14.10;99.90
12655;DHT22;6392;44.644;11.448;2022-09-29T03:41:10;14.20;99.90
12655;DHT22;6392;44.644;11.448;2022-09-29T03:43:36;14.20;99.90
12655;DHT22;6392;44.644;11.448;2022-09-29T03:46:04;14.20;99.90
12655;DHT22;6392;44.644;11.448;2022-09-29T03:48:31;14.20;99.90
12655;DHT22;6392;44.644;11.448;2022-09-29T03:50:59;14.20;99.90
12655;DHT22;6392;44.644;11.448;2022-09-29T03:53:26;14.20;99.90
12655;DHT22;6392;44.644;11.448;2022-09-29T03:55:54;14.20;99.90
12655;DHT22;6392;44.644;11.448;2022-09-29T03:58:22;14.30;99.90
12655;DHT22;6392;44.644;11.448;2022-09-29T04:00:49;14.30;99.90
12655;DHT22;6392;44.644;11.448;2022-09-29T04:03:16;14.30;99.90
12655;DHT22;6392;44.644;11.448;2022-09-29T04:05:44;14.20;99.90
12655;DHT22;6392;44.644;11.448;2022-09-29T04:08:11;14.20;99.90
12655;DHT22;6392;44.644;11.448;2022-09-29T04:10:39;14.20;99.90
12655;DHT22;6392;44.644;11.448;2022-09-29T04:13:07;14.20;99.90
12655;DHT22;6392;44.644;11.448;2022-09-29T04:15:35;14.10;99.90
12655;DHT22;6392;44.644;11.448;2022-09-29T04:18:02;14.10;99.90
12655;DHT22;6392;44.644;11.448;2022-09-29T04:20:31;14.10;99.90
12655;DHT22;6392;44.644;11.448;2022-09-29T04:22:58;14.10;99.90
12655;DHT22;6392;44.644;11.448;2022-09-29T04:25:25;14.00;99.90
12655;DHT22;6392;44.644;11.448;2022-09-29T04:27:52;14.00;99.90
12655;DHT22;6392;44.644;11.448;2022-09-29T04:30:19;13.90;99.90
12655;DHT22;6392;44.644;11.448;2022-09-29T04:32:48;13.90;99.90
12655;DHT22;6392;44.644;11.448;2022-09-29T04:35:15;13.80;99.90
12655;DHT22;6392;44.644;11.448;2022-09-29T04:37:42;13.80;99.90
12655;DHT22;6392;44.644;11.448;2022-09-29T04:40:09;13.80;99.90
12655;DHT22;6392;44.644;11.448;2022-09-29T04:42:37;13.80;99.90
12655;DHT22;6392;44.644;11.448;2022-09-29T04:45:05;13.70;99.90
12655;DHT22;6392;44.644;11.448;2022-09-29T04:47:32;13.70;99.90
12655;DHT22;6392;44.644;11.448;2022-09-29T04:50:00;13.70;99.90
12655;DHT22;6392;44.644;11.448;2022-09-29T04:52:27;13.60;99.90
12655;DHT22;6392;44.644;11.448;2022-09-29T04:54:54;13.50;99.90
12655;DHT22;6392;44.644;11.448;2022-09-29T04:57:21;13.50;99.90
12655;DHT22;6392;44.644;11.448;2022-09-29T04:59:48;13.40;99.90
12655;DHT22;6392;44.644;11.448;2022-09-29T05:02:16;13.40;99.90
12655;DHT22;6392;44.644;11.448;2022-09-29T05:04:44;13.30;99.90
12655;DHT22;6392;44.644;11.448;2022-09-29T05:07:14;13.30;99.90
12655;DHT22;6392;44.644;11.448;2022-09-29T05:09:41;13.30;99.90
12655;DHT22;6392;44.644;11.448;2022-09-29T05:12:08;13.30;99.90
12655;DHT22;6392;44.644;11.448;2022-09-29T05:14:35;13.40;99.90
12655;DHT22;6392;44.644;11.448;2022-09-29T05:17:02;13.30;99.90
12655;DHT22;6392;44.644;11.448;2022-09-29T05:19:29;13.40;99.90
12655;DHT22;6392;44.644;11.448;2022-09-29T05:21:57;13.50;99.90
12655;DHT22;6392;44.644;11.448;2022-09-29T05:24:26;13.50;99.90
12655;DHT22;6392;44.644;11.448;2022-09-29T05:26:53;13.50;99.90
12655;DHT22;6392;44.644;11.448;2022-09-29T05:29:20;13.60;99.90
12655;DHT22;6392;44.644;11.448;2022-09-29T05:31:48;13.60;99.90
12655;DHT22;6392;44.644;11.448;2022-09-29T05:34:15;13.60;99.90
12655;DHT22;6392;44.644;11.448;2022-09-29T05:36:42;13.50;99.90
12655;DHT22;6392;44.644;11.448;2022-09-29T05:39:09;13.40;99.90
12655;DHT22;6392;44.644;11.448;2022-09-29T05:41:38;13.40;99.90
12655;DHT22;6392;44.644;11.448;2022-09-29T05:44:05;13.40;99.90
12655;DHT22;6392;44.644;11.448;2022-09-29T05:46:32;13.30;99.90
12655;DHT22;6392;44.644;11.448;2022-09-29T05:48:59;13.30;99.90
12655;DHT22;6392;44.644;11.448;2022-09-29T05:51:26;13.20;99.90
12655;DHT22;6392;44.644;11.448;2022-09-29T05:53:53;13.20;99.90
12655;DHT22;6392;44.644;11.448;2022-09-29T05:56:22;13.20;99.90
12655;DHT22;6392;44.644;11.448;2022-09-29T05:58:51;13.30;99.90
12655;DHT22;6392;44.644;11.448;2022-09-29T06:01:21;13.30;99.90
12655;DHT22;6392;44.644;11.448;2022-09-29T06:03:48;13.30;99.90
12655;DHT22;6392;44.644;11.448;2022-09-29T06:06:18;13.40;99.90
12655;DHT22;6392;44.644;11.448;2022-09-29T06:08:46;13.40;99.90
12655;DHT22;6392;44.644;11.448;2022-09-29T06:11:15;13.50;99.90
12655;DHT22;6392;44.644;11.448;2022-09-29T06:13:44;13.60;99.90
12655;DHT22;6392;44.644;11.448;2022-09-29T06:16:13;13.70;99.90
12655;DHT22;6392;44.644;11.448;2022-09-29T06:18:41;13.70;99.90
12655;DHT22;6392;44.644;11.448;2022-09-29T06:21:10;13.70;99.90
12655;DHT22;6392;44.644;11.448;2022-09-29T06:23:37;13.80;99.90
12655;DHT22;6392;44.644;11.448;2022-09-29T06:26:06;13.80;99.90
12655;DHT22;6392;44.644;11.448;2022-09-29T06:28:33;13.90;99.90
12655;DHT22;6392;44.644;11.448;2022-09-29T06:31:02;13.90;99.90
12655;DHT22;6392;44.644;11.448;2022-09-29T06:33:32;14.00;99.90
12655;DHT22;6392;44.644;11.448;2022-09-29T06:36:03;14.00;99.90
12655;DHT22;6392;44.644;11.448;2022-09-29T06:38:48;14.10;99.90
12655;DHT22;6392;44.644;11.448;2022-09-29T06:41:15;14.10;99.90
12655;DHT22;6392;44.644;11.448;2022-09-29T06:43:42;14.10;99.90
12655;DHT22;6392;44.644;11.448;2022-09-29T06:46:09;14.10;99.90
12655;DHT22;6392;44.644;11.448;2022-09-29T06:48:37;14.10;99.90
12655;DHT22;6392;44.644;11.448;2022-09-29T06:51:06;14.20;99.90
12655;DHT22;6392;44.644;11.448;2022-09-29T06:53:33;14.20;99.90
12655;DHT22;6392;44.644;11.448;2022-09-29T06:56:01;14.30;99.90
12655;DHT22;6392;44.644;11.448;2022-09-29T06:58:29;14.30;99.90
12655;DHT22;6392;44.644;11.448;2022-09-29T07:00:59;14.40;99.90
12655;DHT22;6392;44.644;11.448;2022-09-29T07:03:26;14.40;99.90
12655;DHT22;6392;44.644;11.448;2022-09-29T07:05:55;14.50;99.90
12655;DHT22;6392;44.644;11.448;2022-09-29T07:08:22;14.60;99.90
12655;DHT22;6392;44.644;11.448;2022-09-29T07:10:49;14.60;99.90
12655;DHT22;6392;44.644;11.448;2022-09-29T07:13:16;14.70;99.90
12655;DHT22;6392;44.644;11.448;2022-09-29T07:15:42;14.80;99.90
12655;DHT22;6392;44.644;11.448;2022-09-29T07:18:11;14.90;99.90
12655;DHT22;6392;44.644;11.448;2022-09-29T07:20:39;14.90;99.90
12655;DHT22;6392;44.644;11.448;2022-09-29T07:23:07;15.00;99.90
12655;DHT22;6392;44.644;11.448;2022-09-29T07:25:34;15.10;99.90
12655;DHT22;6392;44.644;11.448;2022-09-29T07:28:01;15.10;99.90
12655;DHT22;6392;44.644;11.448;2022-09-29T07:30:29;15.20;99.90
12655;DHT22;6392;44.644;11.448;2022-09-29T07:32:56;15.30;99.90
12655;DHT22;6392;44.644;11.448;2022-09-29T07:35:23;15.30;99.90
12655;DHT22;6392;44.644;11.448;2022-09-29T07:37:51;15.40;99.90
12655;DHT22;6392;44.644;11.448;2022-09-29T07:40:19;15.40;99.90
12655;DHT22;6392;44.644;11.448;2022-09-29T07:42:47;15.50;99.90
12655;DHT22;6392;44.644;11.448;2022-09-29T07:45:15;15.60;99.90
12655;DHT22;6392;44.644;11.448;2022-09-29T07:47:42;15.60;99.90
12655;DHT22;6392;44.644;11.448;2022-09-29T07:50:09;15.70;99.90
12655;DHT22;6392;44.644;11.448;2022-09-29T07:52:36;15.80;99.90
12655;DHT22;6392;44.644;11.448;2022-09-29T07:55:04;15.80;99.90
12655;DHT22;6392;44.644;11.448;2022-09-29T07:57:33;15.90;99.90
12655;DHT22;6392;44.644;11.448;2022-09-29T08:00:00;16.00;99.90
12655;DHT22;6392;44.644;11.448;2022-09-29T08:02:27;16.20;99.90
12655;DHT22;6392;44.644;11.448;2022-09-29T08:04:54;16.30;99.90
12655;DHT22;6392;44.644;11.448;2022-09-29T08:07:21;16.40;99.90
12655;DHT22;6392;44.644;11.448;2022-09-29T08:09:48;16.50;99.90
12655;DHT22;6392;44.644;11.448;2022-09-29T08:12:15;16.60;99.90
12655;DHT22;6392;44.644;11.448;2022-09-29T08:14:44;16.70;99.90
12655;DHT22;6392;44.644;11.448;2022-09-29T08:17:12;16.70;99.90
12655;DHT22;6392;44.644;11.448;2022-09-29T08:19:39;16.70;99.90
12655;DHT22;6392;44.644;11.448;2022-09-29T08:22:06;16.80;99.90
12655;DHT22;6392;44.644;11.448;2022-09-29T08:24:33;16.80;99.90
12655;DHT22;6392;44.644;11.448;2022-09-29T08:27:01;16.80;99.90
12655;DHT22;6392;44.644;11.448;2022-09-29T08:29:29;16.90;99.90
12655;DHT22;6392;44.644;11.448;2022-09-29T08:31:58;17.00;99.90
12655;DHT22;6392;44.644;11.448;2022-09-29T08:34:25;17.10;99.90
12655;DHT22;6392;44.644;11.448;2022-09-29T08:36:52;17.20;99.90
12655;DHT22;6392;44.644;11.448;2022-09-29T08:39:20;17.30;99.90
12655;DHT22;6392;44.644;11.448;2022-09-29T08:41:53;17.30;99.90
12655;DHT22;6392;44.644;11.448;2022-09-29T08:44:31;17.40;99.90
12655;DHT22;6392;44.644;11.448;2022-09-29T08:47:07;17.60;99.90
12655;DHT22;6392;44.644;11.448;2022-09-29T08:49:41;17.70;99.90
12655;DHT22;6392;44.644;11.448;2022-09-29T08:52:12;17.80;99.90
12655;DHT22;6392;44.644;11.448;2022-09-29T08:54:42;17.80;99.90
12655;DHT22;6392;44.644;11.448;2022-09-29T08:57:12;17.80;99.90
12655;DHT22;6392;44.644;11.448;2022-09-29T08:59:42;17.80;99.90
12655;DHT22;6392;44.644;11.448;2022-09-29T09:02:29;17.80;99.90
12655;DHT22;6392;44.644;11.448;2022-09-29T09:05:17;17.80;99.90
12655;DHT22;6392;44.644;11.448;2022-09-29T09:07:57;17.80;99.90
12655;DHT22;6392;44.644;11.448;2022-09-29T09:10:37;17.80;99.90
12655;DHT22;6392;44.644;11.448;2022-09-29T09:13:23;17.80;99.90
12655;DHT22;6392;44.644;11.448;2022-09-29T09:16:03;17.90;99.90
12655;DHT22;6392;44.644;11.448;2022-09-29T09:18:53;17.90;99.90
12655;DHT22;6392;44.644;11.448;2022-09-29T09:21:27;18.00;99.90
12655;DHT22;6392;44.644;11.448;2022-09-29T09:24:07;18.00;99.90
12655;DHT22;6392;44.644;11.448;2022-09-29T09:26:40;18.10;99.90
12655;DHT22;6392;44.644;11.448;2022-09-29T09:29:12;18.20;99.90
12655;DHT22;6392;44.644;11.448;2022-09-29T09:31:43;18.20;99.90
12655;DHT22;6392;44.644;11.448;2022-09-29T09:34:16;18.30;99.90
12655;DHT22;6392;44.644;11.448;2022-09-29T09:36:49;18.30;99.90
12655;DHT22;6392;44.644;11.448;2022-09-29T09:39:22;18.40;99.90
12655;DHT22;6392;44.644;11.448;2022-09-29T09:41:52;18.40;99.90
12655;DHT22;6392;44.644;11.448;2022-09-29T09:44:24;18.50;99.90
12655;DHT22;6392;44.644;11.448;2022-09-29T09:46:55;18.90;99.90
12655;DHT22;6392;44.644;11.448;2022-09-29T09:49:28;19.00;99.90
12655;DHT22;6392;44.644;11.448;2022-09-29T09:52:00;19.20;99.90
12655;DHT22;6392;44.644;11.448;2022-09-29T09:54:32;19.30;99.90
12655;DHT22;6392;44.644;11.448;2022-09-29T09:57:23;19.50;99.90
12655;DHT22;6392;44.644;11.448;2022-09-29T10:00:06;19.60;99.90
12655;DHT22;6392;44.644;11.448;2022-09-29T10:02:42;19.70;99.90
12655;DHT22;6392;44.644;11.448;2022-09-29T10:05:14;19.70;99.90
12655;DHT22;6392;44.644;11.448;2022-09-29T10:07:42;19.70;99.90
12655;DHT22;6392;44.644;11.448;2022-09-29T10:10:16;19.90;99.90
12655;DHT22;6392;44.644;11.448;2022-09-29T10:12:44;19.90;99.90
12655;DHT22;6392;44.644;11.448;2022-09-29T10:15:19;20.00;99.90
12655;DHT22;6392;44.644;11.448;2022-09-29T10:17:50;20.10;99.90
12655;DHT22;6392;44.644;11.448;2022-09-29T10:20:33;20.20;99.90
12655;DHT22;6392;44.644;11.448;2022-09-29T10:23:24;20.60;99.90
12655;DHT22;6392;44.644;11.448;2022-09-29T10:25:54;20.70;99.90
12655;DHT22;6392;44.644;11.448;2022-09-29T10:28:24;20.90;99.90
12655;DHT22;6392;44.644;11.448;2022-09-29T10:30:53;20.70;99.90
12655;DHT22;6392;44.644;11.448;2022-09-29T10:33:22;20.60;99.90
12655;DHT22;6392;44.644;11.448;2022-09-29T10:36:03;20.70;99.90
12655;DHT22;6392;44.644;11.448;2022-09-29T10:38:31;20.70;99.90
12655;DHT22;6392;44.644;11.448;2022-09-29T10:41:00;20.90;99.90
12655;DHT22;6392;44.644;11.448;2022-09-29T10:43:34;21.00;99.90
12655;DHT22;6392;44.644;11.448;2022-09-29T10:46:01;21.00;99.90
12655;DHT22;6392;44.644;11.448;2022-09-29T10:48:28;21.10;99.90
12655;DHT22;6392;44.644;11.448;2022-09-29T10:50:59;21.20;99.90
12655;DHT22;6392;44.644;11.448;2022-09-29T10:53:34;21.20;99.90
12655;DHT22;6392;44.644;11.448;2022-09-29T10:56:08;21.20;99.90
12655;DHT22;6392;44.644;11.448;2022-09-29T10:58:42;21.20;99.90
12655;DHT22;6392;44.644;11.448;2022-09-29T11:01:12;21.20;99.90
12655;DHT22;6392;44.644;11.448;2022-09-29T11:03:44;21.20;99.90
12655;DHT22;6392;44.644;11.448;2022-09-29T11:06:14;21.10;99.90
12655;DHT22;6392;44.644;11.448;2022-09-29T11:08:55;21.10;99.90
12655;DHT22;6392;44.644;11.448;2022-09-29T11:11:24;21.10;99.90
12655;DHT22;6392;44.644;11.448;2022-09-29T11:13:52;21.20;99.90
12655;DHT22;6392;44.644;11.448;2022-09-29T11:16:26;21.20;99.90
12655;DHT22;6392;44.644;11.448;2022-09-29T11:18:56;21.30;99.90
12655;DHT22;6392;44.644;11.448;2022-09-29T11:24:57;21.80;99.90
12655;DHT22;6392;44.644;11.448;2022-09-29T11:27:36;21.80;99.90
12655;DHT22;6392;44.644;11.448;2022-09-29T11:30:10;21.90;99.90
12655;DHT22;6392;44.644;11.448;2022-09-29T11:33:01;21.90;99.90
12655;DHT22;6392;44.644;11.448;2022-09-29T11:35:42;21.90;99.90
12655;DHT22;6392;44.644;11.448;2022-09-29T11:38:23;21.60;99.90
12655;DHT22;6392;44.644;11.448;2022-09-29T11:41:05;21.60;99.90
12655;DHT22;6392;44.644;11.448;2022-09-29T11:43:43;21.70;99.90
12655;DHT22;6392;44.644;11.448;2022-09-29T11:46:28;21.90;99.90
12655;DHT22;6392;44.644;11.448;2022-09-29T11:49:24;22.00;99.90
12655;DHT22;6392;44.644;11.448;2022-09-29T11:52:06;21.90;99.90
12655;DHT22;6392;44.644;11.448;2022-09-29T11:54:54;22.00;99.90
12655;DHT22;6392;44.644;11.448;2022-09-29T11:57:35;22.00;99.90
12655;DHT22;6392;44.644;11.448;2022-09-29T12:00:08;22.20;99.90
12655;DHT22;6392;44.644;11.448;2022-09-29T12:03:08;22.20;99.90
12655;DHT22;6392;44.644;11.448;2022-09-29T12:05:56;22.00;99.90
12655;DHT22;6392;44.644;11.448;2022-09-29T12:08:41;21.80;99.90
12655;DHT22;6392;44.644;11.448;2022-09-29T12:11:21;21.70;99.90
12655;DHT22;6392;44.644;11.448;2022-09-29T12:13:53;21.50;99.90
12655;DHT22;6392;44.644;11.448;2022-09-29T12:16:27;21.60;99.90
12655;DHT22;6392;44.644;11.448;2022-09-29T12:19:00;21.80;99.90
12655;DHT22;6392;44.644;11.448;2022-09-29T12:21:32;21.90;99.90
12655;DHT22;6392;44.644;11.448;2022-09-29T12:24:04;21.90;99.90
12655;DHT22;6392;44.644;11.448;2022-09-29T12:26:33;21.90;99.90
12655;DHT22;6392;44.644;11.448;2022-09-29T12:29:04;21.90;99.90
12655;DHT22;6392;44.644;11.448;2022-09-29T12:31:36;21.90;99.90
12655;DHT22;6392;44.644;11.448;2022-09-29T12:34:08;21.90;99.90
12655;DHT22;6392;44.644;11.448;2022-09-29T12:36:44;22.00;99.90
12655;DHT22;6392;44.644;11.448;2022-09-29T12:39:40;22.10;99.90
12655;DHT22;6392;44.644;11.448;2022-09-29T12:42:27;22.40;99.90
12655;DHT22;6392;44.644;11.448;2022-09-29T12:45:02;22.60;99.90
12655;DHT22;6392;44.644;11.448;2022-09-29T12:47:46;22.60;99.90
12655;DHT22;6392;44.644;11.448;2022-09-29T12:50:17;22.60;99.90
12655;DHT22;6392;44.644;11.448;2022-09-29T12:52:50;22.70;99.90
12655;DHT22;6392;44.644;11.448;2022-09-29T12:55:25;22.80;99.90
12655;DHT22;6392;44.644;11.448;2022-09-29T12:58:00;22.80;99.90
12655;DHT22;6392;44.644;11.448;2022-09-29T13:00:33;22.90;99.90
12655;DHT22;6392;44.644;11.448;2022-09-29T13:06:23;22.90;99.90
12655;DHT22;6392;44.644;11.448;2022-09-29T13:09:14;23.10;99.90
12655;DHT22;6392;44.644;11.448;2022-09-29T13:11:59;23.40;99.90
12655;DHT22;6392;44.644;11.448;2022-09-29T13:14:48;23.70;99.90
12655;DHT22;6392;44.644;11.448;2022-09-29T13:17:39;24.00;99.90
12655;DHT22;6392;44.644;11.448;2022-09-29T13:20:35;23.90;99.90
12655;DHT22;6392;44.644;11.448;2022-09-29T13:26:33;23.70;99.90
12655;DHT22;6392;44.644;11.448;2022-09-29T13:29:11;23.50;99.90
12655;DHT22;6392;44.644;11.448;2022-09-29T13:31:42;23.40;99.90
12655;DHT22;6392;44.644;11.448;2022-09-29T13:34:21;23.40;99.90
12655;DHT22;6392;44.644;11.448;2022-09-29T13:36:50;23.40;99.90
12655;DHT22;6392;44.644;11.448;2022-09-29T13:39:21;23.60;99.90
12655;DHT22;6392;44.644;11.448;2022-09-29T13:41:52;23.90;99.90
12655;DHT22;6392;44.644;11.448;2022-09-29T13:44:24;24.00;99.90
12655;DHT22;6392;44.644;11.448;2022-09-29T13:46:54;24.00;99.90
12655;DHT22;6392;44.644;11.448;2022-09-29T13:49:28;24.10;99.90
12655;DHT22;6392;44.644;11.448;2022-09-29T13:51:58;24.10;99.90
12655;DHT22;6392;44.644;11.448;2022-09-29T13:54:37;24.20;99.90
12655;DHT22;6392;44.644;11.448;2022-09-29T13:57:20;24.20;99.90
12655;DHT22;6392;44.644;11.448;2022-09-29T14:00:15;24.10;99.90
12655;DHT22;6392;44.644;11.448;2022-09-29T14:02:59;24.10;99.90
12655;DHT22;6392;44.644;11.448;2022-09-29T14:05:45;23.90;99.90
12655;DHT22;6392;44.644;11.448;2022-09-29T14:08:23;23.80;99.90
12655;DHT22;6392;44.644;11.448;2022-09-29T14:11:02;23.70;99.90
12655;DHT22;6392;44.644;11.448;2022-09-29T14:13:37;23.60;99.90
12655;DHT22;6392;44.644;11.448;2022-09-29T14:16:16;23.60;99.90
12655;DHT22;6392;44.644;11.448;2022-09-29T14:18:50;23.60;99.90
12655;DHT22;6392;44.644;11.448;2022-09-29T14:21:51;23.60;99.90
12655;DHT22;6392;44.644;11.448;2022-09-29T14:24:41;23.50;99.90
12655;DHT22;6392;44.644;11.448;2022-09-29T14:27:26;23.50;99.90
12655;DHT22;6392;44.644;11.448;2022-09-29T14:30:01;23.50;99.90
12655;DHT22;6392;44.644;11.448;2022-09-29T14:32:38;23.50;99.90
12655;DHT22;6392;44.644;11.448;2022-09-29T14:35:15;23.30;99.90
12655;DHT22;6392;44.644;11.448;2022-09-29T14:37:44;23.00;99.90
12655;DHT22;6392;44.644;11.448;2022-09-29T14:40:16;22.70;99.90
12655;DHT22;6392;44.644;11.448;2022-09-29T14:43:07;22.50;99.90
12655;DHT22;6392;44.644;11.448;2022-09-29T14:45:44;22.50;99.90
12655;DHT22;6392;44.644;11.448;2022-09-29T14:48:35;22.60;99.90
12655;DHT22;6392;44.644;11.448;2022-09-29T14:51:25;22.60;99.90
12655;DHT22;6392;44.644;11.448;2022-09-29T14:54:18;22.70;99.90
12655;DHT22;6392;44.644;11.448;2022-09-29T14:56:56;22.70;99.90
12655;DHT22;6392;44.644;11.448;2022-09-29T14:59:39;22.70;99.90
12655;DHT22;6392;44.644;11.448;2022-09-29T15:02:18;22.80;99.90
12655;DHT22;6392;44.644;11.448;2022-09-29T15:04:46;22.80;99.90
12655;DHT22;6392;44.644;11.448;2022-09-29T15:07:16;22.80;99.90
12655;DHT22;6392;44.644;11.448;2022-09-29T15:09:47;22.80;99.90
12655;DHT22;6392;44.644;11.448;2022-09-29T15:12:19;22.80;99.90
12655;DHT22;6392;44.644;11.448;2022-09-29T15:14:47;22.80;99.90
12655;DHT22;6392;44.644;11.448;2022-09-29T15:17:19;22.80;99.90
12655;DHT22;6392;44.644;11.448;2022-09-29T15:19:55;22.70;99.90
12655;DHT22;6392;44.644;11.448;2022-09-29T15:25:30;22.70;99.90
12655;DHT22;6392;44.644;11.448;2022-09-29T15:28:00;22.60;99.90
12655;DHT22;6392;44.644;11.448;2022-09-29T15:30:29;22.60;99.90
12655;DHT22;6392;44.644;11.448;2022-09-29T15:33:18;22.60;99.90
12655;DHT22;6392;44.644;11.448;2022-09-29T15:35:48;22.60;99.90
12655;DHT22;6392;44.644;11.448;2022-09-29T15:38:30;22.50;99.90
12655;DHT22;6392;44.644;11.448;2022-09-29T15:41:02;22.50;99.90
12655;DHT22;6392;44.644;11.448;2022-09-29T15:43:33;22.40;99.90
12655;DHT22;6392;44.644;11.448;2022-09-29T15:46:15;22.40;99.90
12655;DHT22;6392;44.644;11.448;2022-09-29T15:49:04;22.40;99.90
12655;DHT22;6392;44.644;11.448;2022-09-29T15:51:33;22.30;99.90
12655;DHT22;6392;44.644;11.448;2022-09-29T15:54:02;22.30;99.90
12655;DHT22;6392;44.644;11.448;2022-09-29T15:56:35;22.20;99.90
12655;DHT22;6392;44.644;11.448;2022-09-29T15:59:47;22.20;99.90
12655;DHT22;6392;44.644;11.448;2022-09-29T16:02:19;22.10;99.90
12655;DHT22;6392;44.644;11.448;2022-09-29T16:04:51;22.00;99.90
12655;DHT22;6392;44.644;11.448;2022-09-29T16:07:22;22.00;99.90
12655;DHT22;6392;44.644;11.448;2022-09-29T16:09:57;22.00;99.90
12655;DHT22;6392;44.644;11.448;2022-09-29T16:12:25;21.90;99.90
12655;DHT22;6392;44.644;11.448;2022-09-29T16:14:53;21.90;99.90
12655;DHT22;6392;44.644;11.448;2022-09-29T16:17:21;21.80;99.90